CQH8401 ZSSS-ZSYA
Flight info
| Callsign | CQH8401 |
|---|---|
| Flight time | 0h 39m |
| Altitude | 12800 |
| Route | POMOK G330 PIMOL DCT |
| Aircraft | A20N/M-SDE2E3FGHIRWXY/LB1 |
Departure
| Time | 2026-05-06 14:28 |
|---|---|
| Airport | Shanghai Hongqiao International Airport (ZSSS) |
Arrival
| Time | 2026-05-06 15:07 |
|---|---|
| Airport | Yangzhou Taizhou Airport (ZSYA) |
| Time | Latitude | Longitude | Altitude | Speed | Heading |
|---|---|---|---|---|---|
| 2026-05-06 13:49 | 31.19971 | 121.34081 | 17 ft | 0 kts | 177° |
| 2026-05-06 14:12 | 31.19964 | 121.34081 | 17 ft | 1 kts | 177° |
| 2026-05-06 14:12 | 31.19947 | 121.34082 | 17 ft | 3 kts | 176° |
| 2026-05-06 14:12 | 31.19919 | 121.34077 | 17 ft | 4 kts | 214° |
| 2026-05-06 14:13 | 31.19905 | 121.34040 | 17 ft | 5 kts | 258° |
| 2026-05-06 14:13 | 31.19900 | 121.33987 | 17 ft | 7 kts | 257° |
| 2026-05-06 14:13 | 31.19891 | 121.33920 | 17 ft | 9 kts | 266° |
| 2026-05-06 14:13 | 31.19888 | 121.33830 | 15 ft | 12 kts | 267° |
| 2026-05-06 14:14 | 31.19885 | 121.33762 | 16 ft | 3 kts | 267° |
| 2026-05-06 14:14 | 31.19885 | 121.33758 | 16 ft | 0 kts | 267° |
| 2026-05-06 14:16 | 31.19885 | 121.33759 | 16 ft | 0 kts | 267° |
| 2026-05-06 14:16 | 31.19885 | 121.33758 | 16 ft | 0 kts | 267° |
| 2026-05-06 14:22 | 31.19884 | 121.33736 | 16 ft | 7 kts | 267° |
| 2026-05-06 14:23 | 31.19881 | 121.33649 | 18 ft | 12 kts | 267° |
| 2026-05-06 14:23 | 31.19876 | 121.33537 | 18 ft | 13 kts | 266° |
| 2026-05-06 14:23 | 31.19880 | 121.33453 | 18 ft | 9 kts | 295° |
| 2026-05-06 14:23 | 31.19944 | 121.33429 | 18 ft | 11 kts | 357° |
| 2026-05-06 14:24 | 31.20034 | 121.33424 | 17 ft | 13 kts | 357° |
| 2026-05-06 14:24 | 31.20134 | 121.33418 | 17 ft | 14 kts | 357° |
| 2026-05-06 14:24 | 31.20242 | 121.33413 | 17 ft | 15 kts | 357° |
| 2026-05-06 14:24 | 31.20356 | 121.33406 | 17 ft | 16 kts | 357° |
| 2026-05-06 14:25 | 31.20475 | 121.33399 | 18 ft | 16 kts | 356° |
| 2026-05-06 14:25 | 31.20593 | 121.33392 | 19 ft | 17 kts | 358° |
| 2026-05-06 14:25 | 31.20715 | 121.33387 | 19 ft | 18 kts | 356° |
| 2026-05-06 14:25 | 31.20844 | 121.33379 | 19 ft | 18 kts | 357° |
| 2026-05-06 14:26 | 31.20975 | 121.33373 | 18 ft | 19 kts | 356° |
| 2026-05-06 14:26 | 31.21111 | 121.33365 | 19 ft | 19 kts | 358° |
| 2026-05-06 14:26 | 31.21229 | 121.33360 | 19 ft | 15 kts | 358° |
| 2026-05-06 14:26 | 31.21301 | 121.33312 | 19 ft | 9 kts | 273° |
| 2026-05-06 14:27 | 31.21295 | 121.33225 | 19 ft | 11 kts | 264° |
| 2026-05-06 14:27 | 31.21280 | 121.33161 | 19 ft | 6 kts | 199° |
| 2026-05-06 14:27 | 31.21236 | 121.33166 | 19 ft | 4 kts | 175° |
| 2026-05-06 14:27 | 31.21223 | 121.33167 | 18 ft | 6 kts | 176° |
| 2026-05-06 14:28 | 31.20878 | 121.33190 | 19 ft | 94 kts | 178° |
| 2026-05-06 14:28 | 31.19956 | 121.33234 | 112 ft | 158 kts | 175° |
| 2026-05-06 14:28 | 31.18853 | 121.33255 | 932 ft | 162 kts | 176° |
| 2026-05-06 14:28 | 31.17760 | 121.33276 | 1900 ft | 162 kts | 175° |
| 2026-05-06 14:29 | 31.16580 | 121.33349 | 2538 ft | 181 kts | 175° |
| 2026-05-06 14:29 | 31.15247 | 121.33440 | 2979 ft | 201 kts | 176° |
| 2026-05-06 14:29 | 31.13842 | 121.33524 | 3818 ft | 208 kts | 178° |
| 2026-05-06 14:29 | 31.12397 | 121.33598 | 4742 ft | 214 kts | 178° |
| 2026-05-06 14:30 | 31.10910 | 121.33674 | 5759 ft | 216 kts | 178° |
| 2026-05-06 14:30 | 31.09450 | 121.33752 | 6787 ft | 217 kts | 179° |
| 2026-05-06 14:30 | 31.07920 | 121.33826 | 7708 ft | 225 kts | 181° |
| 2026-05-06 14:30 | 31.06358 | 121.33504 | 8363 ft | 240 kts | 205° |
| 2026-05-06 14:31 | 31.04986 | 121.32347 | 9028 ft | 254 kts | 231° |
| 2026-05-06 14:31 | 31.04155 | 121.30501 | 9663 ft | 270 kts | 257° |
| 2026-05-06 14:31 | 31.04159 | 121.28263 | 10346 ft | 284 kts | 281° |
| 2026-05-06 14:31 | 31.04604 | 121.26030 | 11075 ft | 289 kts | 281° |
| 2026-05-06 14:32 | 31.05030 | 121.23741 | 11531 ft | 290 kts | 281° |
| 2026-05-06 14:32 | 31.05448 | 121.21439 | 11735 ft | 291 kts | 281° |
| 2026-05-06 14:32 | 31.05868 | 121.19128 | 11754 ft | 291 kts | 281° |
| 2026-05-06 14:32 | 31.06287 | 121.16831 | 11748 ft | 290 kts | 282° |
| 2026-05-06 14:33 | 31.07016 | 121.14632 | 11734 ft | 292 kts | 303° |
| 2026-05-06 14:33 | 31.08524 | 121.13043 | 11739 ft | 296 kts | 329° |
| 2026-05-06 14:33 | 31.10509 | 121.12356 | 11762 ft | 316 kts | 352° |
| 2026-05-06 14:33 | 31.12809 | 121.12229 | 11772 ft | 336 kts | 355° |
| 2026-05-06 14:34 | 31.15115 | 121.12131 | 12013 ft | 352 kts | 355° |
| 2026-05-06 14:34 | 31.17556 | 121.12016 | 12499 ft | 348 kts | 355° |
| 2026-05-06 14:34 | 31.19977 | 121.11890 | 12716 ft | 346 kts | 355° |
| 2026-05-06 14:34 | 31.22376 | 121.11755 | 12734 ft | 345 kts | 354° |
| 2026-05-06 14:35 | 31.24801 | 121.11618 | 12744 ft | 345 kts | 354° |
| 2026-05-06 14:35 | 31.27181 | 121.11483 | 12762 ft | 345 kts | 355° |
| 2026-05-06 14:35 | 31.29602 | 121.11344 | 12754 ft | 345 kts | 354° |
| 2026-05-06 14:35 | 31.31993 | 121.11206 | 12755 ft | 345 kts | 354° |
| 2026-05-06 14:36 | 31.34407 | 121.11085 | 12755 ft | 346 kts | 356° |
| 2026-05-06 14:36 | 31.36806 | 121.11128 | 12768 ft | 347 kts | 0° |
| 2026-05-06 14:36 | 31.39229 | 121.11281 | 12766 ft | 348 kts | 1° |
| 2026-05-06 14:36 | 31.41656 | 121.11449 | 12757 ft | 348 kts | 1° |
| 2026-05-06 14:37 | 31.44076 | 121.11458 | 12740 ft | 345 kts | 351° |
| 2026-05-06 14:37 | 31.46403 | 121.10903 | 12755 ft | 342 kts | 339° |
| 2026-05-06 14:37 | 31.48610 | 121.09867 | 12752 ft | 340 kts | 333° |
| 2026-05-06 14:37 | 31.50745 | 121.08719 | 12749 ft | 340 kts | 332° |
| 2026-05-06 14:38 | 31.52904 | 121.07546 | 12748 ft | 339 kts | 332° |
| 2026-05-06 14:38 | 31.55055 | 121.06390 | 12749 ft | 340 kts | 332° |
| 2026-05-06 14:38 | 31.59376 | 121.04082 | 12747 ft | 339 kts | 333° |
| 2026-05-06 14:39 | 31.61535 | 121.02930 | 12746 ft | 339 kts | 333° |
| 2026-05-06 14:39 | 31.63673 | 121.01791 | 12745 ft | 339 kts | 333° |
| 2026-05-06 14:39 | 31.65817 | 121.00648 | 12746 ft | 339 kts | 333° |
| 2026-05-06 14:39 | 31.67985 | 120.99492 | 12746 ft | 340 kts | 332° |
| 2026-05-06 14:40 | 31.70132 | 120.98347 | 12745 ft | 340 kts | 333° |
| 2026-05-06 14:40 | 31.72291 | 120.97195 | 12741 ft | 340 kts | 332° |
| 2026-05-06 14:40 | 31.74433 | 120.96050 | 12741 ft | 340 kts | 333° |
| 2026-05-06 14:40 | 31.76594 | 120.94894 | 12745 ft | 340 kts | 332° |
| 2026-05-06 14:41 | 31.78742 | 120.93746 | 12742 ft | 340 kts | 333° |
| 2026-05-06 14:41 | 31.80897 | 120.92593 | 12735 ft | 340 kts | 332° |
| 2026-05-06 14:41 | 31.83078 | 120.91425 | 12741 ft | 340 kts | 332° |
| 2026-05-06 14:41 | 31.85209 | 120.90282 | 12746 ft | 341 kts | 332° |
| 2026-05-06 14:42 | 31.87385 | 120.89117 | 12740 ft | 341 kts | 332° |
| 2026-05-06 14:42 | 31.89541 | 120.87959 | 12744 ft | 340 kts | 332° |
| 2026-05-06 14:42 | 31.91702 | 120.86800 | 12742 ft | 340 kts | 332° |
| 2026-05-06 14:42 | 31.93864 | 120.85639 | 12739 ft | 340 kts | 332° |
| 2026-05-06 14:43 | 31.95990 | 120.84499 | 12739 ft | 340 kts | 332° |
| 2026-05-06 14:43 | 31.98151 | 120.83340 | 12735 ft | 339 kts | 332° |
| 2026-05-06 14:43 | 32.00308 | 120.82182 | 12739 ft | 340 kts | 332° |
| 2026-05-06 14:43 | 32.02461 | 120.81022 | 12739 ft | 340 kts | 332° |
| 2026-05-06 14:44 | 32.04619 | 120.79861 | 12738 ft | 340 kts | 332° |
| 2026-05-06 14:44 | 32.06781 | 120.78695 | 12738 ft | 341 kts | 332° |
| 2026-05-06 14:44 | 32.08936 | 120.77533 | 12737 ft | 341 kts | 332° |
| 2026-05-06 14:45 | 32.13235 | 120.75222 | 12738 ft | 341 kts | 332° |
| 2026-05-06 14:45 | 32.15233 | 120.73780 | 12724 ft | 334 kts | 314° |
| 2026-05-06 14:45 | 32.16579 | 120.71583 | 12736 ft | 328 kts | 291° |
| 2026-05-06 14:45 | 32.17131 | 120.69009 | 12748 ft | 324 kts | 275° |
| 2026-05-06 14:46 | 32.17341 | 120.66374 | 12735 ft | 325 kts | 274° |
| 2026-05-06 14:46 | 32.17549 | 120.63731 | 12738 ft | 325 kts | 274° |
| 2026-05-06 14:46 | 32.17764 | 120.61059 | 12739 ft | 325 kts | 274° |
| 2026-05-06 14:46 | 32.17980 | 120.58417 | 12731 ft | 325 kts | 274° |
| 2026-05-06 14:47 | 32.18196 | 120.55787 | 12730 ft | 325 kts | 274° |
| 2026-05-06 14:47 | 32.18418 | 120.53115 | 12733 ft | 325 kts | 274° |
| 2026-05-06 14:47 | 32.18636 | 120.50487 | 12731 ft | 325 kts | 274° |
| 2026-05-06 14:47 | 32.18857 | 120.47827 | 12735 ft | 325 kts | 274° |
| 2026-05-06 14:48 | 32.19077 | 120.45170 | 12732 ft | 325 kts | 274° |
| 2026-05-06 14:48 | 32.19295 | 120.42539 | 12731 ft | 325 kts | 274° |
| 2026-05-06 14:48 | 32.19516 | 120.39870 | 12735 ft | 325 kts | 274° |
| 2026-05-06 14:48 | 32.19733 | 120.37234 | 12735 ft | 325 kts | 274° |
| 2026-05-06 14:49 | 32.19949 | 120.34600 | 12733 ft | 324 kts | 274° |
| 2026-05-06 14:49 | 32.20165 | 120.31953 | 12731 ft | 324 kts | 274° |
| 2026-05-06 14:49 | 32.20380 | 120.29311 | 12728 ft | 324 kts | 274° |
| 2026-05-06 14:49 | 32.20596 | 120.26669 | 12725 ft | 323 kts | 274° |
| 2026-05-06 14:50 | 32.20811 | 120.24033 | 12727 ft | 324 kts | 274° |
| 2026-05-06 14:50 | 32.21025 | 120.21394 | 12730 ft | 325 kts | 274° |
| 2026-05-06 14:50 | 32.21240 | 120.18743 | 12733 ft | 324 kts | 274° |
| 2026-05-06 14:50 | 32.21456 | 120.16073 | 12731 ft | 324 kts | 274° |
| 2026-05-06 14:51 | 32.21668 | 120.13427 | 12730 ft | 325 kts | 274° |
| 2026-05-06 14:51 | 32.21879 | 120.10809 | 12728 ft | 325 kts | 274° |
| 2026-05-06 14:51 | 32.22092 | 120.08143 | 12720 ft | 325 kts | 274° |
| 2026-05-06 14:51 | 32.22304 | 120.05492 | 12720 ft | 325 kts | 274° |
| 2026-05-06 14:52 | 32.22514 | 120.02840 | 12720 ft | 325 kts | 274° |
| 2026-05-06 14:52 | 32.22726 | 120.00167 | 12720 ft | 325 kts | 274° |
| 2026-05-06 14:52 | 32.22935 | 119.97533 | 12719 ft | 324 kts | 274° |
| 2026-05-06 14:52 | 32.23144 | 119.94884 | 12720 ft | 324 kts | 274° |
| 2026-05-06 14:53 | 32.23351 | 119.92241 | 12725 ft | 323 kts | 274° |
| 2026-05-06 14:53 | 32.23557 | 119.89588 | 12724 ft | 323 kts | 274° |
| 2026-05-06 14:53 | 32.23762 | 119.86965 | 12721 ft | 323 kts | 274° |
| 2026-05-06 14:53 | 32.23967 | 119.84332 | 12718 ft | 322 kts | 274° |
| 2026-05-06 14:54 | 32.24171 | 119.81710 | 12455 ft | 316 kts | 274° |
| 2026-05-06 14:54 | 32.24370 | 119.79168 | 12069 ft | 311 kts | 274° |
| 2026-05-06 14:54 | 32.24677 | 119.76656 | 11669 ft | 308 kts | 286° |
| 2026-05-06 14:54 | 32.25817 | 119.74548 | 11288 ft | 309 kts | 316° |
| 2026-05-06 14:55 | 32.27702 | 119.73383 | 10948 ft | 309 kts | 340° |
| 2026-05-06 14:55 | 32.29755 | 119.72699 | 10593 ft | 306 kts | 341° |
| 2026-05-06 14:55 | 32.31787 | 119.71941 | 10168 ft | 303 kts | 338° |
| 2026-05-06 14:55 | 32.33757 | 119.71079 | 9755 ft | 301 kts | 336° |
| 2026-05-06 14:56 | 32.35675 | 119.70151 | 9330 ft | 299 kts | 334° |
| 2026-05-06 14:56 | 32.37585 | 119.69170 | 8908 ft | 297 kts | 334° |
| 2026-05-06 14:56 | 32.39467 | 119.68178 | 8543 ft | 294 kts | 333° |
| 2026-05-06 14:56 | 32.41317 | 119.67187 | 8210 ft | 293 kts | 333° |
| 2026-05-06 14:57 | 32.43166 | 119.66189 | 7887 ft | 291 kts | 333° |
| 2026-05-06 14:57 | 32.45006 | 119.65194 | 7572 ft | 290 kts | 333° |
| 2026-05-06 14:57 | 32.46835 | 119.64206 | 7263 ft | 288 kts | 333° |
| 2026-05-06 14:57 | 32.48679 | 119.63261 | 6972 ft | 286 kts | 338° |
| 2026-05-06 14:58 | 32.50568 | 119.62627 | 6707 ft | 280 kts | 343° |
| 2026-05-06 14:58 | 32.52469 | 119.62098 | 6418 ft | 278 kts | 344° |
| 2026-05-06 14:58 | 32.54362 | 119.61587 | 6114 ft | 277 kts | 344° |
| 2026-05-06 14:58 | 32.56236 | 119.61079 | 5818 ft | 276 kts | 344° |
| 2026-05-06 14:59 | 32.58109 | 119.60567 | 5530 ft | 276 kts | 344° |
| 2026-05-06 14:59 | 32.59983 | 119.60049 | 5265 ft | 275 kts | 344° |
| 2026-05-06 14:59 | 32.61836 | 119.59535 | 5004 ft | 274 kts | 344° |
| 2026-05-06 14:59 | 32.63680 | 119.59023 | 4760 ft | 274 kts | 345° |
| 2026-05-06 15:00 | 32.65551 | 119.58504 | 4518 ft | 273 kts | 345° |
| 2026-05-06 15:00 | 32.67413 | 119.57987 | 4292 ft | 273 kts | 345° |
| 2026-05-06 15:00 | 32.69237 | 119.57483 | 4010 ft | 268 kts | 345° |
| 2026-05-06 15:00 | 32.71030 | 119.56986 | 3715 ft | 264 kts | 345° |
| 2026-05-06 15:01 | 32.72811 | 119.56521 | 3419 ft | 261 kts | 351° |
| 2026-05-06 15:01 | 32.74595 | 119.56810 | 3128 ft | 259 kts | 28° |
| 2026-05-06 15:01 | 32.75822 | 119.58272 | 2983 ft | 245 kts | 69° |
| 2026-05-06 15:01 | 32.76073 | 119.60154 | 2982 ft | 225 kts | 94° |
| 2026-05-06 15:02 | 32.76060 | 119.61964 | 2969 ft | 211 kts | 91° |
| 2026-05-06 15:02 | 32.76156 | 119.63678 | 2972 ft | 208 kts | 86° |
| 2026-05-06 15:02 | 32.76134 | 119.65367 | 2954 ft | 202 kts | 113° |
| 2026-05-06 15:02 | 32.75313 | 119.66608 | 2967 ft | 190 kts | 154° |
| 2026-05-06 15:03 | 32.74090 | 119.67159 | 2996 ft | 187 kts | 168° |
| 2026-05-06 15:03 | 32.72849 | 119.67483 | 2894 ft | 178 kts | 171° |
| 2026-05-06 15:03 | 32.71675 | 119.67763 | 2763 ft | 168 kts | 171° |
| 2026-05-06 15:03 | 32.70531 | 119.68053 | 2512 ft | 165 kts | 169° |
| 2026-05-06 15:04 | 32.69429 | 119.68349 | 2278 ft | 161 kts | 169° |
| 2026-05-06 15:04 | 32.68361 | 119.68644 | 2066 ft | 151 kts | 168° |
| 2026-05-06 15:04 | 32.67387 | 119.68916 | 1861 ft | 135 kts | 168° |
| 2026-05-06 15:04 | 32.66501 | 119.69164 | 1663 ft | 127 kts | 169° |
| 2026-05-06 15:05 | 32.65649 | 119.69400 | 1501 ft | 126 kts | 168° |
| 2026-05-06 15:05 | 32.64791 | 119.69638 | 1344 ft | 126 kts | 168° |
| 2026-05-06 15:05 | 32.63931 | 119.69876 | 1183 ft | 125 kts | 168° |
| 2026-05-06 15:05 | 32.63087 | 119.70110 | 1030 ft | 125 kts | 167° |
| 2026-05-06 15:06 | 32.62240 | 119.70347 | 858 ft | 124 kts | 167° |
| 2026-05-06 15:06 | 32.61404 | 119.70578 | 671 ft | 123 kts | 167° |
| 2026-05-06 15:06 | 32.60560 | 119.70812 | 528 ft | 123 kts | 166° |
| 2026-05-06 15:06 | 32.59731 | 119.71045 | 371 ft | 123 kts | 166° |
| 2026-05-06 15:07 | 32.58901 | 119.71270 | 203 ft | 121 kts | 165° |
| 2026-05-06 15:07 | 32.58080 | 119.71500 | 49 ft | 119 kts | 165° |
| 2026-05-06 15:07 | 32.57339 | 119.71715 | 19 ft | 94 kts | 170° |
| 2026-05-06 15:07 | 32.56862 | 119.71805 | 19 ft | 44 kts | 164° |
| 2026-05-06 15:08 | 32.74020 | 119.67105 | 2044 ft | 191 kts | 168° |
| 2026-05-06 15:08 | 32.72742 | 119.67487 | 1585 ft | 194 kts | 166° |